sensor_id;sensor_type;location;lat;lon;timestamp;P1;durP1;ratioP1;P2;durP2;ratioP2
8694;SDS011;65580;49.446;6.854;2023-02-22T00:02:14;17.75;;;7.25;;
8694;SDS011;65580;49.446;6.854;2023-02-22T00:06:27;14.20;;;7.65;;
8694;SDS011;65580;49.446;6.854;2023-02-22T00:10:31;17.98;;;7.35;;
8694;SDS011;65580;49.446;6.854;2023-02-22T00:14:34;13.40;;;6.95;;
8694;SDS011;65580;49.446;6.854;2023-02-22T00:18:39;16.10;;;7.53;;
8694;SDS011;65580;49.446;6.854;2023-02-22T00:22:43;18.27;;;7.32;;
8694;SDS011;65580;49.446;6.854;2023-02-22T00:26:48;14.02;;;6.72;;
8694;SDS011;65580;49.446;6.854;2023-02-22T00:34:57;16.52;;;7.38;;
8694;SDS011;65580;49.446;6.854;2023-02-22T00:39:00;20.60;;;7.85;;
8694;SDS011;65580;49.446;6.854;2023-02-22T00:43:04;18.35;;;7.63;;
8694;SDS011;65580;49.446;6.854;2023-02-22T00:47:09;18.05;;;6.72;;
8694;SDS011;65580;49.446;6.854;2023-02-22T00:51:14;18.42;;;7.82;;
8694;SDS011;65580;49.446;6.854;2023-02-22T00:55:20;17.98;;;7.00;;
8694;SDS011;65580;49.446;6.854;2023-02-22T00:59:25;22.02;;;7.85;;
8694;SDS011;65580;49.446;6.854;2023-02-22T01:03:28;20.75;;;7.57;;
8694;SDS011;65580;49.446;6.854;2023-02-22T01:11:38;18.52;;;7.38;;
8694;SDS011;65580;49.446;6.854;2023-02-22T01:15:42;19.55;;;7.53;;
8694;SDS011;65580;49.446;6.854;2023-02-22T01:19:45;15.45;;;6.50;;
8694;SDS011;65580;49.446;6.854;2023-02-22T01:23:50;22.63;;;8.45;;
8694;SDS011;65580;49.446;6.854;2023-02-22T01:27:55;18.70;;;6.80;;
8694;SDS011;65580;49.446;6.854;2023-02-22T01:32:00;17.40;;;7.03;;
8694;SDS011;65580;49.446;6.854;2023-02-22T01:36:04;18.65;;;7.53;;
8694;SDS011;65580;49.446;6.854;2023-02-22T01:40:16;17.13;;;7.40;;
8694;SDS011;65580;49.446;6.854;2023-02-22T01:44:25;13.93;;;6.47;;
8694;SDS011;65580;49.446;6.854;2023-02-22T01:48:34;16.88;;;6.43;;
8694;SDS011;65580;49.446;6.854;2023-02-22T01:52:39;18.73;;;7.72;;
8694;SDS011;65580;49.446;6.854;2023-02-22T01:56:46;15.18;;;6.88;;
8694;SDS011;65580;49.446;6.854;2023-02-22T02:00:53;12.55;;;6.32;;
8694;SDS011;65580;49.446;6.854;2023-02-22T02:04:58;13.85;;;6.50;;
8694;SDS011;65580;49.446;6.854;2023-02-22T02:09:03;20.02;;;8.30;;
8694;SDS011;65580;49.446;6.854;2023-02-22T02:13:13;16.50;;;7.22;;
8694;SDS011;65580;49.446;6.854;2023-02-22T02:17:17;17.95;;;7.22;;
8694;SDS011;65580;49.446;6.854;2023-02-22T02:21:39;14.57;;;6.35;;
8694;SDS011;65580;49.446;6.854;2023-02-22T02:25:56;16.65;;;6.20;;
8694;SDS011;65580;49.446;6.854;2023-02-22T02:30:35;17.85;;;6.43;;
8694;SDS011;65580;49.446;6.854;2023-02-22T02:34:56;17.48;;;7.30;;
8694;SDS011;65580;49.446;6.854;2023-02-22T02:39:04;14.27;;;5.90;;
8694;SDS011;65580;49.446;6.854;2023-02-22T02:43:13;16.10;;;6.07;;
8694;SDS011;65580;49.446;6.854;2023-02-22T02:47:23;14.65;;;6.60;;
8694;SDS011;65580;49.446;6.854;2023-02-22T02:51:35;14.25;;;5.50;;
8694;SDS011;65580;49.446;6.854;2023-02-22T02:55:49;14.90;;;6.20;;
8694;SDS011;65580;49.446;6.854;2023-02-22T02:59:58;11.75;;;5.82;;
8694;SDS011;65580;49.446;6.854;2023-02-22T03:04:28;17.35;;;6.95;;
8694;SDS011;65580;49.446;6.854;2023-02-22T03:08:52;11.40;;;5.60;;
8694;SDS011;65580;49.446;6.854;2023-02-22T03:13:07;15.48;;;6.38;;
8694;SDS011;65580;49.446;6.854;2023-02-22T03:17:15;14.40;;;6.32;;
8694;SDS011;65580;49.446;6.854;2023-02-22T03:21:27;14.93;;;5.90;;
8694;SDS011;65580;49.446;6.854;2023-02-22T03:25:36;13.85;;;5.75;;
8694;SDS011;65580;49.446;6.854;2023-02-22T03:29:46;14.02;;;5.60;;
8694;SDS011;65580;49.446;6.854;2023-02-22T03:33:52;13.25;;;5.97;;
8694;SDS011;65580;49.446;6.854;2023-02-22T03:38:01;12.40;;;5.95;;
8694;SDS011;65580;49.446;6.854;2023-02-22T03:42:08;9.80;;;4.78;;
8694;SDS011;65580;49.446;6.854;2023-02-22T03:46:15;15.15;;;5.93;;
8694;SDS011;65580;49.446;6.854;2023-02-22T03:50:27;10.75;;;5.38;;
8694;SDS011;65580;49.446;6.854;2023-02-22T03:54:38;11.50;;;5.80;;
8694;SDS011;65580;49.446;6.854;2023-02-22T03:58:46;11.13;;;5.03;;
8694;SDS011;65580;49.446;6.854;2023-02-22T04:02:51;9.50;;;4.93;;
8694;SDS011;65580;49.446;6.854;2023-02-22T04:06:55;12.43;;;5.57;;
8694;SDS011;65580;49.446;6.854;2023-02-22T04:11:04;13.45;;;5.15;;
8694;SDS011;65580;49.446;6.854;2023-02-22T04:15:11;11.57;;;5.40;;
8694;SDS011;65580;49.446;6.854;2023-02-22T04:19:20;13.82;;;5.53;;
8694;SDS011;65580;49.446;6.854;2023-02-22T04:23:26;11.05;;;4.88;;
8694;SDS011;65580;49.446;6.854;2023-02-22T04:27:35;10.20;;;5.00;;
8694;SDS011;65580;49.446;6.854;2023-02-22T04:31:40;12.13;;;5.07;;
8694;SDS011;65580;49.446;6.854;2023-02-22T04:35:53;10.90;;;4.82;;
8694;SDS011;65580;49.446;6.854;2023-02-22T04:39:58;13.35;;;4.88;;
8694;SDS011;65580;49.446;6.854;2023-02-22T04:44:02;14.57;;;5.95;;
8694;SDS011;65580;49.446;6.854;2023-02-22T04:48:10;19.65;;;7.78;;
8694;SDS011;65580;49.446;6.854;2023-02-22T04:52:19;13.88;;;5.03;;
8694;SDS011;65580;49.446;6.854;2023-02-22T04:56:28;9.40;;;4.75;;
8694;SDS011;65580;49.446;6.854;2023-02-22T05:00:32;10.90;;;4.43;;
8694;SDS011;65580;49.446;6.854;2023-02-22T05:04:40;10.50;;;4.75;;
8694;SDS011;65580;49.446;6.854;2023-02-22T05:08:46;9.30;;;4.82;;
8694;SDS011;65580;49.446;6.854;2023-02-22T05:12:53;14.80;;;7.20;;
8694;SDS011;65580;49.446;6.854;2023-02-22T05:17:00;12.32;;;5.53;;
8694;SDS011;65580;49.446;6.854;2023-02-22T05:21:21;13.10;;;5.90;;
8694;SDS011;65580;49.446;6.854;2023-02-22T05:25:25;11.10;;;5.60;;
8694;SDS011;65580;49.446;6.854;2023-02-22T05:29:29;13.95;;;5.57;;
8694;SDS011;65580;49.446;6.854;2023-02-22T05:33:33;14.23;;;5.32;;
8694;SDS011;65580;49.446;6.854;2023-02-22T05:37:38;13.20;;;5.60;;
8694;SDS011;65580;49.446;6.854;2023-02-22T05:41:43;12.77;;;5.75;;
8694;SDS011;65580;49.446;6.854;2023-02-22T05:45:49;10.57;;;5.30;;
8694;SDS011;65580;49.446;6.854;2023-02-22T05:49:53;10.32;;;4.93;;
8694;SDS011;65580;49.446;6.854;2023-02-22T05:53:58;10.15;;;5.50;;
8694;SDS011;65580;49.446;6.854;2023-02-22T05:58:02;10.82;;;4.70;;
8694;SDS011;65580;49.446;6.854;2023-02-22T06:02:07;12.73;;;5.00;;
8694;SDS011;65580;49.446;6.854;2023-02-22T06:06:10;11.82;;;5.72;;
8694;SDS011;65580;49.446;6.854;2023-02-22T06:10:16;11.93;;;5.85;;
8694;SDS011;65580;49.446;6.854;2023-02-22T06:14:22;12.88;;;6.00;;
8694;SDS011;65580;49.446;6.854;2023-02-22T06:18:28;13.20;;;6.05;;
8694;SDS011;65580;49.446;6.854;2023-02-22T06:22:36;14.20;;;6.32;;
8694;SDS011;65580;49.446;6.854;2023-02-22T06:26:45;13.63;;;5.45;;
8694;SDS011;65580;49.446;6.854;2023-02-22T06:30:50;15.57;;;6.40;;
8694;SDS011;65580;49.446;6.854;2023-02-22T06:34:55;18.20;;;8.30;;
8694;SDS011;65580;49.446;6.854;2023-02-22T06:38:59;14.45;;;6.13;;
8694;SDS011;65580;49.446;6.854;2023-02-22T06:43:07;21.17;;;9.13;;
8694;SDS011;65580;49.446;6.854;2023-02-22T06:47:14;12.45;;;5.57;;
8694;SDS011;65580;49.446;6.854;2023-02-22T06:51:18;12.45;;;5.80;;
8694;SDS011;65580;49.446;6.854;2023-02-22T06:55:26;18.83;;;8.88;;
8694;SDS011;65580;49.446;6.854;2023-02-22T06:59:32;10.95;;;5.38;;
8694;SDS011;65580;49.446;6.854;2023-02-22T07:03:36;12.77;;;6.43;;
8694;SDS011;65580;49.446;6.854;2023-02-22T07:07:44;12.80;;;5.82;;
8694;SDS011;65580;49.446;6.854;2023-02-22T07:11:50;25.48;;;9.90;;
8694;SDS011;65580;49.446;6.854;2023-02-22T07:16:01;14.32;;;6.00;;
8694;SDS011;65580;49.446;6.854;2023-02-22T07:20:06;16.00;;;6.63;;
8694;SDS011;65580;49.446;6.854;2023-02-22T07:24:12;15.18;;;6.78;;
8694;SDS011;65580;49.446;6.854;2023-02-22T07:28:16;16.58;;;6.78;;
8694;SDS011;65580;49.446;6.854;2023-02-22T07:32:22;14.90;;;7.00;;
8694;SDS011;65580;49.446;6.854;2023-02-22T07:36:27;21.25;;;8.85;;
8694;SDS011;65580;49.446;6.854;2023-02-22T07:40:34;29.08;;;9.30;;
8694;SDS011;65580;49.446;6.854;2023-02-22T07:48:46;55.83;;;20.73;;
8694;SDS011;65580;49.446;6.854;2023-02-22T07:52:51;54.60;;;22.02;;
8694;SDS011;65580;49.446;6.854;2023-02-22T07:56:55;44.15;;;18.10;;
8694;SDS011;65580;49.446;6.854;2023-02-22T08:00:59;55.45;;;21.33;;
8694;SDS011;65580;49.446;6.854;2023-02-22T08:05:06;43.78;;;16.40;;
8694;SDS011;65580;49.446;6.854;2023-02-22T08:09:11;31.67;;;14.95;;
8694;SDS011;65580;49.446;6.854;2023-02-22T08:13:14;28.38;;;11.88;;
8694;SDS011;65580;49.446;6.854;2023-02-22T08:17:17;30.58;;;13.32;;
8694;SDS011;65580;49.446;6.854;2023-02-22T08:21:22;41.13;;;16.60;;
8694;SDS011;65580;49.446;6.854;2023-02-22T08:25:28;41.03;;;17.88;;
8694;SDS011;65580;49.446;6.854;2023-02-22T08:29:31;50.45;;;20.42;;
8694;SDS011;65580;49.446;6.854;2023-02-22T08:33:34;56.47;;;21.55;;
8694;SDS011;65580;49.446;6.854;2023-02-22T08:37:41;50.45;;;19.75;;
8694;SDS011;65580;49.446;6.854;2023-02-22T08:41:45;39.38;;;18.00;;
8694;SDS011;65580;49.446;6.854;2023-02-22T08:50:00;53.95;;;25.10;;
8694;SDS011;65580;49.446;6.854;2023-02-22T08:54:04;46.90;;;20.75;;
8694;SDS011;65580;49.446;6.854;2023-02-22T08:58:08;48.10;;;17.48;;
8694;SDS011;65580;49.446;6.854;2023-02-22T09:02:12;43.30;;;18.15;;
8694;SDS011;65580;49.446;6.854;2023-02-22T09:06:17;35.10;;;16.50;;
8694;SDS011;65580;49.446;6.854;2023-02-22T09:10:22;49.92;;;20.88;;
8694;SDS011;65580;49.446;6.854;2023-02-22T09:14:26;49.75;;;21.10;;
8694;SDS011;65580;49.446;6.854;2023-02-22T09:18:29;41.25;;;18.15;;
8694;SDS011;65580;49.446;6.854;2023-02-22T09:22:44;27.17;;;11.88;;
8694;SDS011;65580;49.446;6.854;2023-02-22T09:26:52;29.30;;;11.00;;
8694;SDS011;65580;49.446;6.854;2023-02-22T09:30:55;40.65;;;14.02;;
8694;SDS011;65580;49.446;6.854;2023-02-22T09:35:05;31.83;;;11.55;;
8694;SDS011;65580;49.446;6.854;2023-02-22T09:39:10;25.20;;;10.88;;
8694;SDS011;65580;49.446;6.854;2023-02-22T09:43:23;16.38;;;8.77;;
8694;SDS011;65580;49.446;6.854;2023-02-22T09:47:34;19.70;;;8.18;;
8694;SDS011;65580;49.446;6.854;2023-02-22T09:51:42;27.30;;;9.07;;
8694;SDS011;65580;49.446;6.854;2023-02-22T09:55:50;22.30;;;9.10;;
8694;SDS011;65580;49.446;6.854;2023-02-22T09:59:56;18.27;;;8.27;;
8694;SDS011;65580;49.446;6.854;2023-02-22T10:04:14;19.35;;;8.65;;
8694;SDS011;65580;49.446;6.854;2023-02-22T10:08:22;20.80;;;8.60;;
8694;SDS011;65580;49.446;6.854;2023-02-22T10:12:34;17.55;;;8.52;;
8694;SDS011;65580;49.446;6.854;2023-02-22T10:16:42;18.80;;;8.93;;
8694;SDS011;65580;49.446;6.854;2023-02-22T10:20:50;19.63;;;9.38;;
8694;SDS011;65580;49.446;6.854;2023-02-22T10:24:57;19.60;;;8.68;;
8694;SDS011;65580;49.446;6.854;2023-02-22T10:29:02;20.13;;;9.40;;
8694;SDS011;65580;49.446;6.854;2023-02-22T10:33:11;23.88;;;9.18;;
8694;SDS011;65580;49.446;6.854;2023-02-22T10:37:21;16.80;;;9.40;;
8694;SDS011;65580;49.446;6.854;2023-02-22T10:41:29;17.98;;;9.90;;
8694;SDS011;65580;49.446;6.854;2023-02-22T10:45:33;24.30;;;10.95;;
8694;SDS011;65580;49.446;6.854;2023-02-22T10:49:39;20.13;;;10.57;;
8694;SDS011;65580;49.446;6.854;2023-02-22T10:53:47;20.05;;;10.57;;
8694;SDS011;65580;49.446;6.854;2023-02-22T10:57:58;19.08;;;10.07;;
8694;SDS011;65580;49.446;6.854;2023-02-22T11:02:07;22.17;;;10.75;;
8694;SDS011;65580;49.446;6.854;2023-02-22T11:06:18;21.27;;;10.60;;
8694;SDS011;65580;49.446;6.854;2023-02-22T11:10:29;25.38;;;10.35;;
8694;SDS011;65580;49.446;6.854;2023-02-22T11:14:38;23.13;;;11.65;;
8694;SDS011;65580;49.446;6.854;2023-02-22T11:18:43;25.35;;;11.63;;
8694;SDS011;65580;49.446;6.854;2023-02-22T11:22:48;21.75;;;10.93;;
8694;SDS011;65580;49.446;6.854;2023-02-22T11:26:55;25.70;;;12.32;;
8694;SDS011;65580;49.446;6.854;2023-02-22T11:31:08;26.17;;;12.80;;
8694;SDS011;65580;49.446;6.854;2023-02-22T11:35:18;22.60;;;11.75;;
8694;SDS011;65580;49.446;6.854;2023-02-22T11:39:27;25.67;;;12.75;;
8694;SDS011;65580;49.446;6.854;2023-02-22T11:43:34;22.83;;;12.70;;
8694;SDS011;65580;49.446;6.854;2023-02-22T11:51:57;26.75;;;12.95;;
8694;SDS011;65580;49.446;6.854;2023-02-22T11:56:12;25.17;;;11.98;;
8694;SDS011;65580;49.446;6.854;2023-02-22T12:00:39;25.02;;;11.40;;
8694;SDS011;65580;49.446;6.854;2023-02-22T12:04:51;24.55;;;12.40;;
8694;SDS011;65580;49.446;6.854;2023-02-22T12:09:06;26.60;;;13.70;;
8694;SDS011;65580;49.446;6.854;2023-02-22T12:13:21;21.77;;;11.93;;
8694;SDS011;65580;49.446;6.854;2023-02-22T12:17:36;26.02;;;12.73;;
8694;SDS011;65580;49.446;6.854;2023-02-22T12:21:59;27.42;;;12.32;;
8694;SDS011;65580;49.446;6.854;2023-02-22T12:26:04;27.55;;;13.23;;
8694;SDS011;65580;49.446;6.854;2023-02-22T12:35:33;25.75;;;13.52;;
8694;SDS011;65580;49.446;6.854;2023-02-22T12:39:41;28.33;;;12.30;;
8694;SDS011;65580;49.446;6.854;2023-02-22T12:43:56;28.65;;;12.80;;
8694;SDS011;65580;49.446;6.854;2023-02-22T12:48:08;29.60;;;14.15;;
8694;SDS011;65580;49.446;6.854;2023-02-22T12:52:26;34.28;;;15.10;;
8694;SDS011;65580;49.446;6.854;2023-02-22T12:56:52;25.35;;;13.55;;
8694;SDS011;65580;49.446;6.854;2023-02-22T13:05:02;25.52;;;12.98;;
8694;SDS011;65580;49.446;6.854;2023-02-22T13:09:17;33.13;;;14.57;;
8694;SDS011;65580;49.446;6.854;2023-02-22T13:13:35;26.92;;;13.32;;
8694;SDS011;65580;49.446;6.854;2023-02-22T13:21:49;33.45;;;15.82;;
8694;SDS011;65580;49.446;6.854;2023-02-22T13:25:57;26.05;;;13.02;;
8694;SDS011;65580;49.446;6.854;2023-02-22T13:30:09;29.10;;;13.75;;
8694;SDS011;65580;49.446;6.854;2023-02-22T13:34:27;31.17;;;14.10;;
8694;SDS011;65580;49.446;6.854;2023-02-22T13:38:46;30.65;;;13.90;;
8694;SDS011;65580;49.446;6.854;2023-02-22T13:43:13;45.85;;;19.27;;
8694;SDS011;65580;49.446;6.854;2023-02-22T13:47:30;22.73;;;12.73;;
8694;SDS011;65580;49.446;6.854;2023-02-22T13:51:51;26.30;;;12.75;;
8694;SDS011;65580;49.446;6.854;2023-02-22T13:55:56;26.95;;;13.32;;
8694;SDS011;65580;49.446;6.854;2023-02-22T14:00:37;28.92;;;13.05;;
8694;SDS011;65580;49.446;6.854;2023-02-22T14:04:43;47.15;;;26.00;;
8694;SDS011;65580;49.446;6.854;2023-02-22T14:08:46;26.48;;;14.05;;
8694;SDS011;65580;49.446;6.854;2023-02-22T14:12:52;28.63;;;13.98;;
8694;SDS011;65580;49.446;6.854;2023-02-22T14:21:34;25.40;;;13.18;;
8694;SDS011;65580;49.446;6.854;2023-02-22T14:25:38;26.08;;;12.23;;
8694;SDS011;65580;49.446;6.854;2023-02-22T14:29:48;25.67;;;13.13;;
8694;SDS011;65580;49.446;6.854;2023-02-22T14:34:01;30.63;;;13.27;;
8694;SDS011;65580;49.446;6.854;2023-02-22T14:38:13;29.25;;;13.35;;
8694;SDS011;65580;49.446;6.854;2023-02-22T14:42:21;27.65;;;12.65;;
8694;SDS011;65580;49.446;6.854;2023-02-22T14:46:26;26.13;;;12.13;;
8694;SDS011;65580;49.446;6.854;2023-02-22T14:50:36;23.17;;;12.63;;
8694;SDS011;65580;49.446;6.854;2023-02-22T14:54:51;24.77;;;12.70;;
8694;SDS011;65580;49.446;6.854;2023-02-22T14:59:05;28.05;;;13.85;;
8694;SDS011;65580;49.446;6.854;2023-02-22T15:03:23;26.90;;;13.32;;
8694;SDS011;65580;49.446;6.854;2023-02-22T15:07:31;26.63;;;12.65;;
8694;SDS011;65580;49.446;6.854;2023-02-22T15:11:36;24.50;;;12.85;;
8694;SDS011;65580;49.446;6.854;2023-02-22T15:15:39;25.67;;;13.07;;
8694;SDS011;65580;49.446;6.854;2023-02-22T15:19:44;26.92;;;13.32;;
8694;SDS011;65580;49.446;6.854;2023-02-22T15:23:51;25.80;;;13.30;;
8694;SDS011;65580;49.446;6.854;2023-02-22T15:27:59;27.15;;;14.27;;
8694;SDS011;65580;49.446;6.854;2023-02-22T15:32:16;28.77;;;14.88;;
8694;SDS011;65580;49.446;6.854;2023-02-22T15:36:21;30.88;;;14.68;;
8694;SDS011;65580;49.446;6.854;2023-02-22T15:40:30;26.85;;;13.45;;
8694;SDS011;65580;49.446;6.854;2023-02-22T15:44:40;41.53;;;17.35;;
8694;SDS011;65580;49.446;6.854;2023-02-22T15:48:44;29.80;;;14.68;;
8694;SDS011;65580;49.446;6.854;2023-02-22T15:53:06;28.73;;;13.75;;
8694;SDS011;65580;49.446;6.854;2023-02-22T15:57:19;32.75;;;15.20;;
8694;SDS011;65580;49.446;6.854;2023-02-22T16:01:23;30.38;;;14.70;;
8694;SDS011;65580;49.446;6.854;2023-02-22T16:05:31;28.35;;;14.07;;
8694;SDS011;65580;49.446;6.854;2023-02-22T16:09:38;32.38;;;15.70;;
8694;SDS011;65580;49.446;6.854;2023-02-22T16:13:42;29.77;;;15.05;;
8694;SDS011;65580;49.446;6.854;2023-02-22T16:17:53;34.05;;;15.35;;
8694;SDS011;65580;49.446;6.854;2023-02-22T16:22:04;31.55;;;15.20;;
8694;SDS011;65580;49.446;6.854;2023-02-22T16:26:19;32.75;;;17.55;;
8694;SDS011;65580;49.446;6.854;2023-02-22T16:30:28;31.27;;;16.77;;
8694;SDS011;65580;49.446;6.854;2023-02-22T16:34:34;37.67;;;17.90;;
8694;SDS011;65580;49.446;6.854;2023-02-22T16:38:39;54.75;;;22.85;;
8694;SDS011;65580;49.446;6.854;2023-02-22T16:42:47;65.40;;;26.33;;
8694;SDS011;65580;49.446;6.854;2023-02-22T16:46:53;110.50;;;46.25;;
8694;SDS011;65580;49.446;6.854;2023-02-22T16:51:00;71.50;;;29.88;;
8694;SDS011;65580;49.446;6.854;2023-02-22T16:55:04;41.60;;;19.30;;
8694;SDS011;65580;49.446;6.854;2023-02-22T16:59:09;33.50;;;16.23;;
8694;SDS011;65580;49.446;6.854;2023-02-22T17:03:16;36.60;;;16.77;;
8694;SDS011;65580;49.446;6.854;2023-02-22T17:07:20;31.80;;;15.50;;
8694;SDS011;65580;49.446;6.854;2023-02-22T17:11:30;32.53;;;15.50;;
8694;SDS011;65580;49.446;6.854;2023-02-22T17:15:34;30.95;;;14.43;;
8694;SDS011;65580;49.446;6.854;2023-02-22T17:19:39;27.30;;;14.02;;
8694;SDS011;65580;49.446;6.854;2023-02-22T17:23:42;29.90;;;13.90;;
8694;SDS011;65580;49.446;6.854;2023-02-22T17:27:46;31.55;;;14.70;;
8694;SDS011;65580;49.446;6.854;2023-02-22T17:31:50;27.88;;;13.77;;
8694;SDS011;65580;49.446;6.854;2023-02-22T17:35:55;27.83;;;14.13;;
8694;SDS011;65580;49.446;6.854;2023-02-22T17:40:00;25.15;;;13.70;;
8694;SDS011;65580;49.446;6.854;2023-02-22T17:44:04;32.33;;;15.98;;
8694;SDS011;65580;49.446;6.854;2023-02-22T17:48:08;35.97;;;15.43;;
8694;SDS011;65580;49.446;6.854;2023-02-22T17:52:12;32.63;;;14.88;;
8694;SDS011;65580;49.446;6.854;2023-02-22T17:56:16;29.58;;;14.25;;
8694;SDS011;65580;49.446;6.854;2023-02-22T18:00:21;35.10;;;16.10;;
8694;SDS011;65580;49.446;6.854;2023-02-22T18:04:24;28.30;;;13.35;;
8694;SDS011;65580;49.446;6.854;2023-02-22T18:08:29;27.73;;;13.68;;
8694;SDS011;65580;49.446;6.854;2023-02-22T18:12:32;25.13;;;12.85;;
8694;SDS011;65580;49.446;6.854;2023-02-22T18:16:35;28.38;;;13.10;;
8694;SDS011;65580;49.446;6.854;2023-02-22T18:20:40;26.50;;;13.00;;
8694;SDS011;65580;49.446;6.854;2023-02-22T18:24:46;33.72;;;15.15;;
8694;SDS011;65580;49.446;6.854;2023-02-22T18:28:49;29.55;;;12.65;;
8694;SDS011;65580;49.446;6.854;2023-02-22T18:32:54;26.05;;;13.57;;
8694;SDS011;65580;49.446;6.854;2023-02-22T18:36:57;28.73;;;13.13;;
8694;SDS011;65580;49.446;6.854;2023-02-22T18:41:03;26.92;;;12.38;;
8694;SDS011;65580;49.446;6.854;2023-02-22T18:45:07;24.73;;;12.35;;
8694;SDS011;65580;49.446;6.854;2023-02-22T18:49:12;25.65;;;11.95;;
8694;SDS011;65580;49.446;6.854;2023-02-22T18:53:15;26.75;;;12.68;;
8694;SDS011;65580;49.446;6.854;2023-02-22T18:57:20;28.27;;;11.80;;
8694;SDS011;65580;49.446;6.854;2023-02-22T19:01:23;25.33;;;11.63;;
8694;SDS011;65580;49.446;6.854;2023-02-22T19:05:27;26.55;;;13.18;;
8694;SDS011;65580;49.446;6.854;2023-02-22T19:09:30;40.08;;;17.35;;
8694;SDS011;65580;49.446;6.854;2023-02-22T19:13:35;25.88;;;12.80;;
8694;SDS011;65580;49.446;6.854;2023-02-22T19:17:39;26.90;;;12.23;;
8694;SDS011;65580;49.446;6.854;2023-02-22T19:21:43;23.13;;;11.52;;
8694;SDS011;65580;49.446;6.854;2023-02-22T19:25:46;30.02;;;13.05;;
8694;SDS011;65580;49.446;6.854;2023-02-22T19:29:55;26.92;;;12.68;;
8694;SDS011;65580;49.446;6.854;2023-02-22T19:33:59;25.63;;;13.02;;
8694;SDS011;65580;49.446;6.854;2023-02-22T19:38:05;27.75;;;13.80;;
8694;SDS011;65580;49.446;6.854;2023-02-22T19:42:24;36.17;;;16.75;;
8694;SDS011;65580;49.446;6.854;2023-02-22T19:46:34;35.85;;;15.43;;
8694;SDS011;65580;49.446;6.854;2023-02-22T19:50:38;38.65;;;18.00;;
8694;SDS011;65580;49.446;6.854;2023-02-22T19:54:49;41.65;;;18.13;;
8694;SDS011;65580;49.446;6.854;2023-02-22T19:58:54;28.08;;;13.52;;
8694;SDS011;65580;49.446;6.854;2023-02-22T20:03:01;27.60;;;13.70;;
8694;SDS011;65580;49.446;6.854;2023-02-22T20:07:11;29.83;;;14.45;;
8694;SDS011;65580;49.446;6.854;2023-02-22T20:11:15;28.45;;;14.48;;
8694;SDS011;65580;49.446;6.854;2023-02-22T20:15:21;31.80;;;16.15;;
8694;SDS011;65580;49.446;6.854;2023-02-22T20:19:26;39.63;;;17.00;;
8694;SDS011;65580;49.446;6.854;2023-02-22T20:23:31;91.75;;;31.77;;
8694;SDS011;65580;49.446;6.854;2023-02-22T20:27:35;78.20;;;26.63;;
8694;SDS011;65580;49.446;6.854;2023-02-22T20:31:42;65.03;;;28.20;;
8694;SDS011;65580;49.446;6.854;2023-02-22T20:35:52;75.30;;;30.75;;
8694;SDS011;65580;49.446;6.854;2023-02-22T20:39:56;82.20;;;32.80;;
8694;SDS011;65580;49.446;6.854;2023-02-22T20:44:01;56.40;;;24.58;;
8694;SDS011;65580;49.446;6.854;2023-02-22T20:48:06;61.13;;;26.10;;
8694;SDS011;65580;49.446;6.854;2023-02-22T20:52:11;69.60;;;27.20;;
8694;SDS011;65580;49.446;6.854;2023-02-22T20:56:16;122.00;;;31.30;;
8694;SDS011;65580;49.446;6.854;2023-02-22T21:00:34;42.03;;;18.70;;
8694;SDS011;65580;49.446;6.854;2023-02-22T21:04:39;34.45;;;16.58;;
8694;SDS011;65580;49.446;6.854;2023-02-22T21:08:49;37.42;;;17.65;;
8694;SDS011;65580;49.446;6.854;2023-02-22T21:12:55;35.10;;;17.23;;
8694;SDS011;65580;49.446;6.854;2023-02-22T21:17:05;32.70;;;15.70;;
8694;SDS011;65580;49.446;6.854;2023-02-22T21:21:10;33.33;;;16.67;;
8694;SDS011;65580;49.446;6.854;2023-02-22T21:25:17;41.50;;;18.95;;
8694;SDS011;65580;49.446;6.854;2023-02-22T21:29:20;33.13;;;15.95;;
8694;SDS011;65580;49.446;6.854;2023-02-22T21:33:24;34.45;;;15.82;;
8694;SDS011;65580;49.446;6.854;2023-02-22T21:37:30;37.00;;;16.85;;
8694;SDS011;65580;49.446;6.854;2023-02-22T21:41:38;35.90;;;17.10;;
8694;SDS011;65580;49.446;6.854;2023-02-22T21:45:41;34.55;;;17.45;;
8694;SDS011;65580;49.446;6.854;2023-02-22T21:49:44;37.85;;;17.95;;
8694;SDS011;65580;49.446;6.854;2023-02-22T21:53:52;36.58;;;17.52;;
8694;SDS011;65580;49.446;6.854;2023-02-22T21:57:58;36.25;;;17.23;;
8694;SDS011;65580;49.446;6.854;2023-02-22T22:02:04;36.22;;;17.65;;
8694;SDS011;65580;49.446;6.854;2023-02-22T22:06:09;39.97;;;19.23;;
8694;SDS011;65580;49.446;6.854;2023-02-22T22:10:14;54.05;;;22.02;;
8694;SDS011;65580;49.446;6.854;2023-02-22T22:14:26;36.30;;;17.63;;
8694;SDS011;65580;49.446;6.854;2023-02-22T22:18:30;36.80;;;17.42;;
8694;SDS011;65580;49.446;6.854;2023-02-22T22:22:34;38.28;;;17.70;;
8694;SDS011;65580;49.446;6.854;2023-02-22T22:26:39;33.00;;;17.25;;
8694;SDS011;65580;49.446;6.854;2023-02-22T22:30:46;32.15;;;16.98;;
8694;SDS011;65580;49.446;6.854;2023-02-22T22:34:50;39.53;;;17.88;;
8694;SDS011;65580;49.446;6.854;2023-02-22T22:38:56;36.58;;;17.20;;
8694;SDS011;65580;49.446;6.854;2023-02-22T22:43:01;106.43;;;29.75;;
8694;SDS011;65580;49.446;6.854;2023-02-22T22:47:08;48.03;;;20.92;;
8694;SDS011;65580;49.446;6.854;2023-02-22T22:51:13;42.78;;;19.98;;
8694;SDS011;65580;49.446;6.854;2023-02-22T22:55:19;40.20;;;19.02;;
8694;SDS011;65580;49.446;6.854;2023-02-22T22:59:24;42.13;;;19.17;;
8694;SDS011;65580;49.446;6.854;2023-02-22T23:07:34;38.08;;;17.77;;
8694;SDS011;65580;49.446;6.854;2023-02-22T23:11:38;37.35;;;18.02;;
8694;SDS011;65580;49.446;6.854;2023-02-22T23:15:45;33.70;;;16.63;;
8694;SDS011;65580;49.446;6.854;2023-02-22T23:23:54;38.90;;;16.88;;
8694;SDS011;65580;49.446;6.854;2023-02-22T23:27:59;43.13;;;20.38;;
8694;SDS011;65580;49.446;6.854;2023-02-22T23:32:02;35.13;;;17.52;;
8694;SDS011;65580;49.446;6.854;2023-02-22T23:36:08;81.35;;;25.70;;
8694;SDS011;65580;49.446;6.854;2023-02-22T23:40:13;34.03;;;17.33;;
8694;SDS011;65580;49.446;6.854;2023-02-22T23:44:19;36.13;;;17.73;;
8694;SDS011;65580;49.446;6.854;2023-02-22T23:48:22;42.05;;;18.17;;
8694;SDS011;65580;49.446;6.854;2023-02-22T23:52:30;36.20;;;17.45;;
8694;SDS011;65580;49.446;6.854;2023-02-22T23:56:33;31.48;;;16.58;;
